Terminal Aerodrome Forecast
Issued by NWS Sterling, VA

Current Version | Previous Version | Graphics & Text | Print | Product List | Glossary On
Versions: 1 2 3 4 5 6 7 8 9 10 11 12 13 14 15 16 17 18 19 20 21 22 23 24 25 26 27
000
FTUS41 KLWX 192342
TAFDCA
TAF
KDCA 192342Z 2000/2024 10004KT P6SM BKN250
     FM201100 VRB03KT P6SM SCT025 OVC040
     FM201400 14004KT P6SM -RA SCT025 OVC040
     FM201600 15005KT 3SM -RA SCT010 OVC025
     FM202000 15006KT 5SM -DZ BR SCT008 OVC010=

USA.gov is the U.S. government's official web portal to all federal, state and local government web resources and services.